sensor_id;sensor_type;location;lat;lon;timestamp;temperature;humidity
2623;DHT22;1321;48.690;9.022;2022-09-28T00:01:14;10.20;1.00
2623;DHT22;1321;48.690;9.022;2022-09-28T00:03:43;10.30;1.00
2623;DHT22;1321;48.690;9.022;2022-09-28T00:06:13;10.40;99.90
2623;DHT22;1321;48.690;9.022;2022-09-28T00:08:42;10.20;1.00
2623;DHT22;1321;48.690;9.022;2022-09-28T00:11:12;10.20;1.00
2623;DHT22;1321;48.690;9.022;2022-09-28T00:13:43;10.30;59.30
2623;DHT22;1321;48.690;9.022;2022-09-28T00:16:13;10.40;1.00
2623;DHT22;1321;48.690;9.022;2022-09-28T00:18:42;10.30;1.00
2623;DHT22;1321;48.690;9.022;2022-09-28T00:21:13;10.30;20.60
2623;DHT22;1321;48.690;9.022;2022-09-28T00:23:42;10.30;99.90
2623;DHT22;1321;48.690;9.022;2022-09-28T00:26:25;10.30;99.90
2623;DHT22;1321;48.690;9.022;2022-09-28T00:28:55;10.40;98.00
2623;DHT22;1321;48.690;9.022;2022-09-28T00:31:24;10.50;99.90
2623;DHT22;1321;48.690;9.022;2022-09-28T00:33:54;10.50;66.90
2623;DHT22;1321;48.690;9.022;2022-09-28T00:36:22;10.60;1.00
2623;DHT22;1321;48.690;9.022;2022-09-28T00:38:53;10.60;1.00
2623;DHT22;1321;48.690;9.022;2022-09-28T00:41:22;10.40;99.90
2623;DHT22;1321;48.690;9.022;2022-09-28T00:43:51;10.40;99.90
2623;DHT22;1321;48.690;9.022;2022-09-28T00:46:28;10.40;99.90
2623;DHT22;1321;48.690;9.022;2022-09-28T00:49:00;10.40;99.90
2623;DHT22;1321;48.690;9.022;2022-09-28T00:51:30;10.50;99.90
2623;DHT22;1321;48.690;9.022;2022-09-28T00:54:00;10.30;99.90
2623;DHT22;1321;48.690;9.022;2022-09-28T00:56:32;10.50;99.90
2623;DHT22;1321;48.690;9.022;2022-09-28T00:59:01;10.40;1.00
2623;DHT22;1321;48.690;9.022;2022-09-28T01:01:32;10.40;1.00
2623;DHT22;1321;48.690;9.022;2022-09-28T01:04:01;10.40;1.00
2623;DHT22;1321;48.690;9.022;2022-09-28T01:06:33;10.40;1.00
2623;DHT22;1321;48.690;9.022;2022-09-28T01:09:04;10.50;1.00
2623;DHT22;1321;48.690;9.022;2022-09-28T01:11:36;10.40;1.00
2623;DHT22;1321;48.690;9.022;2022-09-28T01:14:06;10.40;1.00
2623;DHT22;1321;48.690;9.022;2022-09-28T01:16:41;10.40;1.00
2623;DHT22;1321;48.690;9.022;2022-09-28T01:19:23;10.30;1.00
2623;DHT22;1321;48.690;9.022;2022-09-28T01:22:08;10.30;1.00
2623;DHT22;1321;48.690;9.022;2022-09-28T01:24:42;10.30;1.00
2623;DHT22;1321;48.690;9.022;2022-09-28T01:27:14;10.40;1.00
2623;DHT22;1321;48.690;9.022;2022-09-28T01:29:53;10.40;1.00
2623;DHT22;1321;48.690;9.022;2022-09-28T01:32:28;10.40;1.00
2623;DHT22;1321;48.690;9.022;2022-09-28T01:35:03;10.40;1.00
2623;DHT22;1321;48.690;9.022;2022-09-28T01:37:38;10.40;1.00
2623;DHT22;1321;48.690;9.022;2022-09-28T01:40:09;10.40;1.00
2623;DHT22;1321;48.690;9.022;2022-09-28T01:42:42;10.40;1.00
2623;DHT22;1321;48.690;9.022;2022-09-28T01:45:17;10.40;1.00
2623;DHT22;1321;48.690;9.022;2022-09-28T01:47:49;10.50;1.00
2623;DHT22;1321;48.690;9.022;2022-09-28T01:50:21;10.40;1.00
2623;DHT22;1321;48.690;9.022;2022-09-28T01:52:53;10.50;1.00
2623;DHT22;1321;48.690;9.022;2022-09-28T01:55:28;10.30;1.00
2623;DHT22;1321;48.690;9.022;2022-09-28T01:58:01;10.40;1.00
2623;DHT22;1321;48.690;9.022;2022-09-28T02:00:32;10.40;1.00
2623;DHT22;1321;48.690;9.022;2022-09-28T02:03:07;10.50;1.00
2623;DHT22;1321;48.690;9.022;2022-09-28T02:05:39;10.40;1.00
2623;DHT22;1321;48.690;9.022;2022-09-28T02:08:12;10.30;1.00
2623;DHT22;1321;48.690;9.022;2022-09-28T02:10:46;10.30;1.00
2623;DHT22;1321;48.690;9.022;2022-09-28T02:13:19;10.40;1.00
2623;DHT22;1321;48.690;9.022;2022-09-28T02:15:51;10.50;1.00
2623;DHT22;1321;48.690;9.022;2022-09-28T02:18:20;10.50;1.00
2623;DHT22;1321;48.690;9.022;2022-09-28T02:20:55;10.50;1.00
2623;DHT22;1321;48.690;9.022;2022-09-28T02:23:26;10.30;1.00
2623;DHT22;1321;48.690;9.022;2022-09-28T02:26:02;10.40;1.00
2623;DHT22;1321;48.690;9.022;2022-09-28T02:28:33;10.40;1.00
2623;DHT22;1321;48.690;9.022;2022-09-28T02:31:01;10.40;1.00
2623;DHT22;1321;48.690;9.022;2022-09-28T02:33:32;10.40;1.00
2623;DHT22;1321;48.690;9.022;2022-09-28T02:36:03;10.50;1.00
2623;DHT22;1321;48.690;9.022;2022-09-28T02:38:31;10.30;1.00
2623;DHT22;1321;48.690;9.022;2022-09-28T02:41:02;10.40;1.00
2623;DHT22;1321;48.690;9.022;2022-09-28T02:43:40;10.40;1.00
2623;DHT22;1321;48.690;9.022;2022-09-28T02:46:15;10.40;1.00
2623;DHT22;1321;48.690;9.022;2022-09-28T02:49:02;10.50;1.00
2623;DHT22;1321;48.690;9.022;2022-09-28T02:52:10;10.50;1.00
2623;DHT22;1321;48.690;9.022;2022-09-28T02:55:13;10.50;1.00
2623;DHT22;1321;48.690;9.022;2022-09-28T02:57:53;10.50;1.00
2623;DHT22;1321;48.690;9.022;2022-09-28T03:00:25;10.50;1.00
2623;DHT22;1321;48.690;9.022;2022-09-28T03:03:01;10.60;1.00
2623;DHT22;1321;48.690;9.022;2022-09-28T03:05:36;10.40;1.00
2623;DHT22;1321;48.690;9.022;2022-09-28T03:08:10;10.40;1.00
2623;DHT22;1321;48.690;9.022;2022-09-28T03:10:43;10.50;1.00
2623;DHT22;1321;48.690;9.022;2022-09-28T03:13:12;10.50;1.00
2623;DHT22;1321;48.690;9.022;2022-09-28T03:15:43;10.60;1.00
2623;DHT22;1321;48.690;9.022;2022-09-28T03:18:15;10.70;1.00
2623;DHT22;1321;48.690;9.022;2022-09-28T03:20:43;10.60;1.00
2623;DHT22;1321;48.690;9.022;2022-09-28T03:23:11;10.50;1.00
2623;DHT22;1321;48.690;9.022;2022-09-28T03:25:50;10.70;1.00
2623;DHT22;1321;48.690;9.022;2022-09-28T03:28:19;10.70;1.00
2623;DHT22;1321;48.690;9.022;2022-09-28T03:30:49;10.70;1.00
2623;DHT22;1321;48.690;9.022;2022-09-28T03:33:17;10.80;1.00
2623;DHT22;1321;48.690;9.022;2022-09-28T03:35:46;10.70;1.00
2623;DHT22;1321;48.690;9.022;2022-09-28T03:38:14;10.70;1.00
2623;DHT22;1321;48.690;9.022;2022-09-28T03:40:44;10.70;1.00
2623;DHT22;1321;48.690;9.022;2022-09-28T03:43:19;10.70;1.00
2623;DHT22;1321;48.690;9.022;2022-09-28T03:45:52;10.70;1.00
2623;DHT22;1321;48.690;9.022;2022-09-28T03:48:22;10.60;1.00
2623;DHT22;1321;48.690;9.022;2022-09-28T03:50:58;10.70;1.00
2623;DHT22;1321;48.690;9.022;2022-09-28T03:53:27;10.60;1.00
2623;DHT22;1321;48.690;9.022;2022-09-28T03:56:00;10.70;1.00
2623;DHT22;1321;48.690;9.022;2022-09-28T03:58:28;10.60;1.00
2623;DHT22;1321;48.690;9.022;2022-09-28T04:01:02;10.70;1.00
2623;DHT22;1321;48.690;9.022;2022-09-28T04:03:31;10.60;1.00
2623;DHT22;1321;48.690;9.022;2022-09-28T04:05:59;10.50;1.00
2623;DHT22;1321;48.690;9.022;2022-09-28T04:08:28;10.60;1.00
2623;DHT22;1321;48.690;9.022;2022-09-28T04:10:56;10.60;1.00
2623;DHT22;1321;48.690;9.022;2022-09-28T04:13:25;10.70;1.00
2623;DHT22;1321;48.690;9.022;2022-09-28T04:15:54;10.60;1.00
2623;DHT22;1321;48.690;9.022;2022-09-28T04:18:24;10.60;1.00
2623;DHT22;1321;48.690;9.022;2022-09-28T04:21:00;10.50;1.00
2623;DHT22;1321;48.690;9.022;2022-09-28T04:23:33;10.40;1.00
2623;DHT22;1321;48.690;9.022;2022-09-28T04:26:01;10.50;1.00
2623;DHT22;1321;48.690;9.022;2022-09-28T04:28:29;10.50;1.00
2623;DHT22;1321;48.690;9.022;2022-09-28T04:31:17;10.50;1.00
2623;DHT22;1321;48.690;9.022;2022-09-28T04:33:47;10.60;1.00
2623;DHT22;1321;48.690;9.022;2022-09-28T04:36:15;10.60;1.00
2623;DHT22;1321;48.690;9.022;2022-09-28T04:38:45;10.50;1.00
2623;DHT22;1321;48.690;9.022;2022-09-28T04:41:19;10.40;1.00
2623;DHT22;1321;48.690;9.022;2022-09-28T04:43:49;10.40;1.00
2623;DHT22;1321;48.690;9.022;2022-09-28T04:46:17;10.40;1.00
2623;DHT22;1321;48.690;9.022;2022-09-28T04:48:47;10.40;1.00
2623;DHT22;1321;48.690;9.022;2022-09-28T04:51:15;10.40;1.00
2623;DHT22;1321;48.690;9.022;2022-09-28T04:53:43;10.40;1.00
2623;DHT22;1321;48.690;9.022;2022-09-28T04:56:13;10.40;1.00
2623;DHT22;1321;48.690;9.022;2022-09-28T04:58:41;10.30;1.00
2623;DHT22;1321;48.690;9.022;2022-09-28T05:01:17;10.30;1.00
2623;DHT22;1321;48.690;9.022;2022-09-28T05:03:50;10.20;1.00
2623;DHT22;1321;48.690;9.022;2022-09-28T05:06:18;10.30;1.00
2623;DHT22;1321;48.690;9.022;2022-09-28T05:08:48;10.30;1.00
2623;DHT22;1321;48.690;9.022;2022-09-28T05:11:16;10.30;1.00
2623;DHT22;1321;48.690;9.022;2022-09-28T05:13:45;10.20;1.00
2623;DHT22;1321;48.690;9.022;2022-09-28T05:16:14;10.30;1.00
2623;DHT22;1321;48.690;9.022;2022-09-28T05:18:43;10.30;1.00
2623;DHT22;1321;48.690;9.022;2022-09-28T05:21:14;10.30;1.00
2623;DHT22;1321;48.690;9.022;2022-09-28T05:23:46;10.40;1.00
2623;DHT22;1321;48.690;9.022;2022-09-28T05:26:14;10.40;1.00
2623;DHT22;1321;48.690;9.022;2022-09-28T05:28:42;10.40;1.00
2623;DHT22;1321;48.690;9.022;2022-09-28T05:31:11;10.40;1.00
2623;DHT22;1321;48.690;9.022;2022-09-28T05:33:39;10.40;1.00
2623;DHT22;1321;48.690;9.022;2022-09-28T05:36:08;10.30;1.00
2623;DHT22;1321;48.690;9.022;2022-09-28T05:38:38;10.30;1.00
2623;DHT22;1321;48.690;9.022;2022-09-28T05:41:06;10.30;1.00
2623;DHT22;1321;48.690;9.022;2022-09-28T05:43:35;10.20;1.00
2623;DHT22;1321;48.690;9.022;2022-09-28T05:46:04;10.30;1.00
2623;DHT22;1321;48.690;9.022;2022-09-28T05:48:33;10.30;1.00
2623;DHT22;1321;48.690;9.022;2022-09-28T05:51:01;10.30;1.00
2623;DHT22;1321;48.690;9.022;2022-09-28T05:53:29;10.20;1.00
2623;DHT22;1321;48.690;9.022;2022-09-28T05:55:59;10.20;1.00
2623;DHT22;1321;48.690;9.022;2022-09-28T05:58:27;10.20;1.00
2623;DHT22;1321;48.690;9.022;2022-09-28T06:00:55;10.20;1.00
2623;DHT22;1321;48.690;9.022;2022-09-28T06:03:24;10.20;1.00
2623;DHT22;1321;48.690;9.022;2022-09-28T06:05:52;10.30;1.00
2623;DHT22;1321;48.690;9.022;2022-09-28T06:08:21;10.20;1.00
2623;DHT22;1321;48.690;9.022;2022-09-28T06:10:49;10.20;1.00
2623;DHT22;1321;48.690;9.022;2022-09-28T06:13:18;10.20;1.00
2623;DHT22;1321;48.690;9.022;2022-09-28T06:15:46;10.20;1.00
2623;DHT22;1321;48.690;9.022;2022-09-28T06:18:14;10.20;1.00
2623;DHT22;1321;48.690;9.022;2022-09-28T06:20:43;10.20;1.00
2623;DHT22;1321;48.690;9.022;2022-09-28T06:23:11;10.20;1.00
2623;DHT22;1321;48.690;9.022;2022-09-28T06:25:40;10.10;1.00
2623;DHT22;1321;48.690;9.022;2022-09-28T06:28:10;10.10;1.00
2623;DHT22;1321;48.690;9.022;2022-09-28T06:30:40;10.20;1.00
2623;DHT22;1321;48.690;9.022;2022-09-28T06:33:10;10.30;1.00
2623;DHT22;1321;48.690;9.022;2022-09-28T06:35:39;10.30;1.00
2623;DHT22;1321;48.690;9.022;2022-09-28T06:38:08;10.30;1.00
2623;DHT22;1321;48.690;9.022;2022-09-28T06:40:36;10.30;1.00
2623;DHT22;1321;48.690;9.022;2022-09-28T06:43:06;10.40;1.00
2623;DHT22;1321;48.690;9.022;2022-09-28T06:45:37;10.40;1.00
2623;DHT22;1321;48.690;9.022;2022-09-28T06:48:07;10.40;1.00
2623;DHT22;1321;48.690;9.022;2022-09-28T06:50:38;10.50;1.00
2623;DHT22;1321;48.690;9.022;2022-09-28T06:53:09;10.60;1.00
2623;DHT22;1321;48.690;9.022;2022-09-28T06:55:38;10.60;1.00
2623;DHT22;1321;48.690;9.022;2022-09-28T06:58:10;10.60;1.00
2623;DHT22;1321;48.690;9.022;2022-09-28T07:00:39;10.60;1.00
2623;DHT22;1321;48.690;9.022;2022-09-28T07:03:11;10.60;1.00
2623;DHT22;1321;48.690;9.022;2022-09-28T07:05:42;10.60;1.00
2623;DHT22;1321;48.690;9.022;2022-09-28T07:08:11;10.80;1.00
2623;DHT22;1321;48.690;9.022;2022-09-28T07:10:41;10.80;1.00
2623;DHT22;1321;48.690;9.022;2022-09-28T07:13:10;10.80;1.00
2623;DHT22;1321;48.690;9.022;2022-09-28T07:16:00;10.90;1.00
2623;DHT22;1321;48.690;9.022;2022-09-28T07:18:29;10.70;99.90
2623;DHT22;1321;48.690;9.022;2022-09-28T07:20:58;10.70;1.00
2623;DHT22;1321;48.690;9.022;2022-09-28T07:23:28;10.70;99.90
2623;DHT22;1321;48.690;9.022;2022-09-28T07:26:02;10.80;99.90
2623;DHT22;1321;48.690;9.022;2022-09-28T07:28:33;10.80;99.90
2623;DHT22;1321;48.690;9.022;2022-09-28T07:31:01;10.60;99.90
2623;DHT22;1321;48.690;9.022;2022-09-28T07:33:31;10.60;99.90
2623;DHT22;1321;48.690;9.022;2022-09-28T07:36:00;10.60;99.90
2623;DHT22;1321;48.690;9.022;2022-09-28T07:38:32;10.50;1.00
2623;DHT22;1321;48.690;9.022;2022-09-28T07:41:00;10.60;1.00
2623;DHT22;1321;48.690;9.022;2022-09-28T07:43:42;10.60;99.90
2623;DHT22;1321;48.690;9.022;2022-09-28T07:46:10;10.60;1.00
2623;DHT22;1321;48.690;9.022;2022-09-28T07:48:41;10.60;1.00
2623;DHT22;1321;48.690;9.022;2022-09-28T07:51:11;10.60;1.00
2623;DHT22;1321;48.690;9.022;2022-09-28T07:53:39;10.70;1.00
2623;DHT22;1321;48.690;9.022;2022-09-28T07:56:08;10.70;1.00
2623;DHT22;1321;48.690;9.022;2022-09-28T07:58:38;10.70;1.00
2623;DHT22;1321;48.690;9.022;2022-09-28T08:01:07;10.70;99.90
2623;DHT22;1321;48.690;9.022;2022-09-28T08:03:37;10.80;1.00
2623;DHT22;1321;48.690;9.022;2022-09-28T08:06:07;10.80;1.00
2623;DHT22;1321;48.690;9.022;2022-09-28T08:08:38;10.80;99.90
2623;DHT22;1321;48.690;9.022;2022-09-28T08:11:10;10.90;99.90
2623;DHT22;1321;48.690;9.022;2022-09-28T08:13:39;11.00;1.00
2623;DHT22;1321;48.690;9.022;2022-09-28T08:16:07;10.90;1.00
2623;DHT22;1321;48.690;9.022;2022-09-28T08:18:35;11.10;1.00
2623;DHT22;1321;48.690;9.022;2022-09-28T08:21:04;11.10;1.00
2623;DHT22;1321;48.690;9.022;2022-09-28T08:23:51;11.10;1.00
2623;DHT22;1321;48.690;9.022;2022-09-28T08:26:20;11.20;99.90
2623;DHT22;1321;48.690;9.022;2022-09-28T08:28:48;11.10;1.00
2623;DHT22;1321;48.690;9.022;2022-09-28T08:31:16;11.20;10.00
2623;DHT22;1321;48.690;9.022;2022-09-28T08:33:45;11.20;99.90
2623;DHT22;1321;48.690;9.022;2022-09-28T08:36:13;11.30;1.00
2623;DHT22;1321;48.690;9.022;2022-09-28T08:38:41;11.40;57.30
2623;DHT22;1321;48.690;9.022;2022-09-28T08:41:21;11.50;99.90
2623;DHT22;1321;48.690;9.022;2022-09-28T08:44:13;11.60;99.90
2623;DHT22;1321;48.690;9.022;2022-09-28T08:46:45;11.60;1.00
2623;DHT22;1321;48.690;9.022;2022-09-28T08:49:20;11.60;1.00
2623;DHT22;1321;48.690;9.022;2022-09-28T08:51:56;11.80;99.90
2623;DHT22;1321;48.690;9.022;2022-09-28T08:54:32;11.80;1.00
2623;DHT22;1321;48.690;9.022;2022-09-28T08:57:09;11.90;1.00
2623;DHT22;1321;48.690;9.022;2022-09-28T08:59:44;11.90;99.60
2623;DHT22;1321;48.690;9.022;2022-09-28T09:02:17;12.00;1.00
2623;DHT22;1321;48.690;9.022;2022-09-28T09:04:47;11.90;1.00
2623;DHT22;1321;48.690;9.022;2022-09-28T09:07:32;11.80;20.20
2623;DHT22;1321;48.690;9.022;2022-09-28T09:10:10;11.80;99.90
2623;DHT22;1321;48.690;9.022;2022-09-28T09:12:47;11.80;1.00
2623;DHT22;1321;48.690;9.022;2022-09-28T09:15:35;11.80;99.90
2623;DHT22;1321;48.690;9.022;2022-09-28T09:18:18;11.80;99.90
2623;DHT22;1321;48.690;9.022;2022-09-28T09:20:52;11.70;1.00
2623;DHT22;1321;48.690;9.022;2022-09-28T09:23:30;11.90;1.00
2623;DHT22;1321;48.690;9.022;2022-09-28T09:26:11;12.10;99.90
2623;DHT22;1321;48.690;9.022;2022-09-28T09:29:18;12.00;99.90
2623;DHT22;1321;48.690;9.022;2022-09-28T09:32:02;12.00;99.90
2623;DHT22;1321;48.690;9.022;2022-09-28T09:34:44;12.20;18.30
2623;DHT22;1321;48.690;9.022;2022-09-28T09:37:30;12.10;91.00
2623;DHT22;1321;48.690;9.022;2022-09-28T09:40:17;12.10;99.90
2623;DHT22;1321;48.690;9.022;2022-09-28T09:42:59;12.00;1.00
2623;DHT22;1321;48.690;9.022;2022-09-28T09:45:52;12.00;99.90
2623;DHT22;1321;48.690;9.022;2022-09-28T09:48:25;12.00;1.00
2623;DHT22;1321;48.690;9.022;2022-09-28T09:50:59;12.10;99.90
2623;DHT22;1321;48.690;9.022;2022-09-28T09:53:36;12.10;99.90
2623;DHT22;1321;48.690;9.022;2022-09-28T09:56:11;12.20;4.90
2623;DHT22;1321;48.690;9.022;2022-09-28T09:58:43;12.20;1.00
2623;DHT22;1321;48.690;9.022;2022-09-28T10:01:18;12.10;99.90
2623;DHT22;1321;48.690;9.022;2022-09-28T10:03:48;12.10;1.00
2623;DHT22;1321;48.690;9.022;2022-09-28T10:06:20;12.00;99.90
2623;DHT22;1321;48.690;9.022;2022-09-28T10:09:00;12.10;99.90
2623;DHT22;1321;48.690;9.022;2022-09-28T10:11:32;12.20;1.00
2623;DHT22;1321;48.690;9.022;2022-09-28T10:14:02;12.30;1.00
2623;DHT22;1321;48.690;9.022;2022-09-28T10:16:33;12.30;1.00
2623;DHT22;1321;48.690;9.022;2022-09-28T10:19:03;12.20;99.90
2623;DHT22;1321;48.690;9.022;2022-09-28T10:21:31;12.20;99.90
2623;DHT22;1321;48.690;9.022;2022-09-28T10:24:03;12.20;99.90
2623;DHT22;1321;48.690;9.022;2022-09-28T10:26:34;12.20;1.00
2623;DHT22;1321;48.690;9.022;2022-09-28T10:29:09;12.30;32.80
2623;DHT22;1321;48.690;9.022;2022-09-28T10:31:43;12.20;1.00
2623;DHT22;1321;48.690;9.022;2022-09-28T10:34:13;12.30;1.00
2623;DHT22;1321;48.690;9.022;2022-09-28T10:36:49;12.20;1.00
2623;DHT22;1321;48.690;9.022;2022-09-28T10:39:25;12.30;1.00
2623;DHT22;1321;48.690;9.022;2022-09-28T10:41:54;12.20;1.00
2623;DHT22;1321;48.690;9.022;2022-09-28T10:44:24;12.20;1.00
2623;DHT22;1321;48.690;9.022;2022-09-28T10:46:59;12.20;1.00
2623;DHT22;1321;48.690;9.022;2022-09-28T10:49:30;12.30;1.00
2623;DHT22;1321;48.690;9.022;2022-09-28T10:52:02;12.50;1.00
2623;DHT22;1321;48.690;9.022;2022-09-28T10:54:34;12.40;1.00
2623;DHT22;1321;48.690;9.022;2022-09-28T10:57:08;12.80;1.00
2623;DHT22;1321;48.690;9.022;2022-09-28T10:59:51;12.80;1.00
2623;DHT22;1321;48.690;9.022;2022-09-28T11:02:24;12.80;1.00
2623;DHT22;1321;48.690;9.022;2022-09-28T11:04:54;12.70;1.00
2623;DHT22;1321;48.690;9.022;2022-09-28T11:07:25;12.70;1.00
2623;DHT22;1321;48.690;9.022;2022-09-28T11:09:56;12.70;1.00
2623;DHT22;1321;48.690;9.022;2022-09-28T11:12:26;12.70;1.00
2623;DHT22;1321;48.690;9.022;2022-09-28T11:14:59;12.60;1.00
2623;DHT22;1321;48.690;9.022;2022-09-28T11:17:31;12.70;1.00
2623;DHT22;1321;48.690;9.022;2022-09-28T11:20:00;12.80;1.00
2623;DHT22;1321;48.690;9.022;2022-09-28T11:22:54;13.00;1.00
2623;DHT22;1321;48.690;9.022;2022-09-28T11:25:25;13.00;1.00
2623;DHT22;1321;48.690;9.022;2022-09-28T11:27:58;13.20;1.00
2623;DHT22;1321;48.690;9.022;2022-09-28T11:30:30;13.40;99.90
2623;DHT22;1321;48.690;9.022;2022-09-28T11:33:03;13.40;99.90
2623;DHT22;1321;48.690;9.022;2022-09-28T11:35:43;13.30;99.90
2623;DHT22;1321;48.690;9.022;2022-09-28T11:38:30;13.40;99.90
2623;DHT22;1321;48.690;9.022;2022-09-28T11:44:10;13.40;99.90
2623;DHT22;1321;48.690;9.022;2022-09-28T11:46:50;13.40;99.90
2623;DHT22;1321;48.690;9.022;2022-09-28T11:49:28;13.60;99.90
2623;DHT22;1321;48.690;9.022;2022-09-28T11:52:03;13.70;99.90
2623;DHT22;1321;48.690;9.022;2022-09-28T11:54:39;13.50;99.90
2623;DHT22;1321;48.690;9.022;2022-09-28T11:57:13;13.40;99.90
2623;DHT22;1321;48.690;9.022;2022-09-28T11:59:50;13.40;99.90
2623;DHT22;1321;48.690;9.022;2022-09-28T12:02:24;13.40;99.90
2623;DHT22;1321;48.690;9.022;2022-09-28T12:04:58;13.30;99.90
2623;DHT22;1321;48.690;9.022;2022-09-28T12:07:33;13.30;99.90
2623;DHT22;1321;48.690;9.022;2022-09-28T12:10:09;13.30;99.90
2623;DHT22;1321;48.690;9.022;2022-09-28T12:12:44;13.20;99.90
2623;DHT22;1321;48.690;9.022;2022-09-28T12:15:16;13.20;99.90
2623;DHT22;1321;48.690;9.022;2022-09-28T12:17:49;13.10;99.90
2623;DHT22;1321;48.690;9.022;2022-09-28T12:20:21;13.10;99.90
2623;DHT22;1321;48.690;9.022;2022-09-28T12:23:00;13.10;99.90
2623;DHT22;1321;48.690;9.022;2022-09-28T12:25:36;13.20;99.90
2623;DHT22;1321;48.690;9.022;2022-09-28T12:28:11;13.10;99.90
2623;DHT22;1321;48.690;9.022;2022-09-28T12:30:42;13.00;99.90
2623;DHT22;1321;48.690;9.022;2022-09-28T12:33:13;13.10;99.90
2623;DHT22;1321;48.690;9.022;2022-09-28T12:36:01;13.10;99.90
2623;DHT22;1321;48.690;9.022;2022-09-28T12:38:44;13.20;99.90
2623;DHT22;1321;48.690;9.022;2022-09-28T12:41:43;13.20;99.90
2623;DHT22;1321;48.690;9.022;2022-09-28T12:44:39;13.20;99.90
2623;DHT22;1321;48.690;9.022;2022-09-28T12:47:30;13.20;99.90
2623;DHT22;1321;48.690;9.022;2022-09-28T12:50:13;13.30;99.90
2623;DHT22;1321;48.690;9.022;2022-09-28T12:53:23;13.30;99.90
2623;DHT22;1321;48.690;9.022;2022-09-28T12:56:01;13.30;99.90
2623;DHT22;1321;48.690;9.022;2022-09-28T12:58:39;13.30;99.90
2623;DHT22;1321;48.690;9.022;2022-09-28T13:01:32;13.30;99.90
2623;DHT22;1321;48.690;9.022;2022-09-28T13:04:30;13.30;99.90
2623;DHT22;1321;48.690;9.022;2022-09-28T13:07:04;13.40;99.90
2623;DHT22;1321;48.690;9.022;2022-09-28T13:09:43;13.40;99.90
2623;DHT22;1321;48.690;9.022;2022-09-28T13:12:20;13.40;99.90
2623;DHT22;1321;48.690;9.022;2022-09-28T13:18:05;13.50;99.90
2623;DHT22;1321;48.690;9.022;2022-09-28T13:20:54;13.40;99.90
2623;DHT22;1321;48.690;9.022;2022-09-28T13:23:26;13.40;99.90
2623;DHT22;1321;48.690;9.022;2022-09-28T13:26:01;13.40;99.90
2623;DHT22;1321;48.690;9.022;2022-09-28T13:28:36;13.40;99.90
2623;DHT22;1321;48.690;9.022;2022-09-28T13:31:05;13.40;99.90
2623;DHT22;1321;48.690;9.022;2022-09-28T13:33:35;13.30;99.90
2623;DHT22;1321;48.690;9.022;2022-09-28T13:36:36;13.30;99.90
2623;DHT22;1321;48.690;9.022;2022-09-28T13:39:33;13.30;99.90
2623;DHT22;1321;48.690;9.022;2022-09-28T13:42:04;13.30;99.90
2623;DHT22;1321;48.690;9.022;2022-09-28T13:47:48;13.40;99.90
2623;DHT22;1321;48.690;9.022;2022-09-28T13:50:26;13.40;99.90
2623;DHT22;1321;48.690;9.022;2022-09-28T13:52:59;13.30;99.90
2623;DHT22;1321;48.690;9.022;2022-09-28T13:55:34;13.40;99.90
2623;DHT22;1321;48.690;9.022;2022-09-28T13:58:15;13.50;99.90
2623;DHT22;1321;48.690;9.022;2022-09-28T14:00:48;13.40;99.90
2623;DHT22;1321;48.690;9.022;2022-09-28T14:03:25;13.50;99.90
2623;DHT22;1321;48.690;9.022;2022-09-28T14:06:05;13.60;99.90
2623;DHT22;1321;48.690;9.022;2022-09-28T14:08:38;13.50;99.90
2623;DHT22;1321;48.690;9.022;2022-09-28T14:11:41;13.60;99.90
2623;DHT22;1321;48.690;9.022;2022-09-28T14:14:46;13.60;99.90
2623;DHT22;1321;48.690;9.022;2022-09-28T14:17:46;13.50;99.90
2623;DHT22;1321;48.690;9.022;2022-09-28T14:20:21;13.50;99.90
2623;DHT22;1321;48.690;9.022;2022-09-28T14:25:43;13.50;99.90
2623;DHT22;1321;48.690;9.022;2022-09-28T14:28:26;13.40;99.90
2623;DHT22;1321;48.690;9.022;2022-09-28T14:31:06;13.50;99.90
2623;DHT22;1321;48.690;9.022;2022-09-28T14:33:36;13.50;99.90
2623;DHT22;1321;48.690;9.022;2022-09-28T14:36:23;13.50;99.90
2623;DHT22;1321;48.690;9.022;2022-09-28T14:39:19;13.50;99.90
2623;DHT22;1321;48.690;9.022;2022-09-28T14:42:13;13.50;99.90
2623;DHT22;1321;48.690;9.022;2022-09-28T14:48:10;13.40;99.90
2623;DHT22;1321;48.690;9.022;2022-09-28T14:50:38;13.50;99.90
2623;DHT22;1321;48.690;9.022;2022-09-28T14:53:13;13.50;99.90
2623;DHT22;1321;48.690;9.022;2022-09-28T14:55:47;13.50;99.90
2623;DHT22;1321;48.690;9.022;2022-09-28T14:58:19;13.60;99.90
2623;DHT22;1321;48.690;9.022;2022-09-28T15:00:56;13.50;99.90
2623;DHT22;1321;48.690;9.022;2022-09-28T15:03:28;13.40;99.90
2623;DHT22;1321;48.690;9.022;2022-09-28T15:05:58;13.40;99.90
2623;DHT22;1321;48.690;9.022;2022-09-28T15:08:38;13.50;99.90
2623;DHT22;1321;48.690;9.022;2022-09-28T15:11:19;13.60;99.90
2623;DHT22;1321;48.690;9.022;2022-09-28T15:13:50;13.50;99.90
2623;DHT22;1321;48.690;9.022;2022-09-28T15:16:22;13.50;99.90
2623;DHT22;1321;48.690;9.022;2022-09-28T15:19:14;13.40;99.90
2623;DHT22;1321;48.690;9.022;2022-09-28T15:21:46;13.40;99.90
2623;DHT22;1321;48.690;9.022;2022-09-28T15:24:27;13.40;99.90
2623;DHT22;1321;48.690;9.022;2022-09-28T15:26:57;13.40;99.90
2623;DHT22;1321;48.690;9.022;2022-09-28T15:29:25;13.40;99.90
2623;DHT22;1321;48.690;9.022;2022-09-28T15:31:57;13.30;99.90
2623;DHT22;1321;48.690;9.022;2022-09-28T15:34:29;13.40;99.90
2623;DHT22;1321;48.690;9.022;2022-09-28T15:37:16;13.40;99.90
2623;DHT22;1321;48.690;9.022;2022-09-28T15:39:45;13.40;99.90
2623;DHT22;1321;48.690;9.022;2022-09-28T15:42:15;13.40;99.90
2623;DHT22;1321;48.690;9.022;2022-09-28T15:45:01;13.20;99.90
2623;DHT22;1321;48.690;9.022;2022-09-28T15:47:30;13.30;99.90
2623;DHT22;1321;48.690;9.022;2022-09-28T15:50:02;13.30;99.90
2623;DHT22;1321;48.690;9.022;2022-09-28T15:52:34;13.30;99.90
2623;DHT22;1321;48.690;9.022;2022-09-28T15:55:16;13.30;99.90
2623;DHT22;1321;48.690;9.022;2022-09-28T15:57:44;13.20;99.90
2623;DHT22;1321;48.690;9.022;2022-09-28T16:00:26;13.20;99.90
2623;DHT22;1321;48.690;9.022;2022-09-28T16:02:59;13.20;99.90
2623;DHT22;1321;48.690;9.022;2022-09-28T16:05:35;13.20;99.90
2623;DHT22;1321;48.690;9.022;2022-09-28T16:08:10;13.10;99.90
2623;DHT22;1321;48.690;9.022;2022-09-28T16:10:52;13.10;99.90
2623;DHT22;1321;48.690;9.022;2022-09-28T16:13:22;13.10;99.90
2623;DHT22;1321;48.690;9.022;2022-09-28T16:15:56;13.10;99.90
2623;DHT22;1321;48.690;9.022;2022-09-28T16:18:26;13.00;99.90
2623;DHT22;1321;48.690;9.022;2022-09-28T16:21:24;13.10;99.90
2623;DHT22;1321;48.690;9.022;2022-09-28T16:23:54;13.00;99.90
2623;DHT22;1321;48.690;9.022;2022-09-28T16:26:29;13.00;99.90
2623;DHT22;1321;48.690;9.022;2022-09-28T16:28:58;13.00;99.90
2623;DHT22;1321;48.690;9.022;2022-09-28T16:31:30;13.10;99.90
2623;DHT22;1321;48.690;9.022;2022-09-28T16:34:15;13.10;99.90
2623;DHT22;1321;48.690;9.022;2022-09-28T16:36:47;13.10;99.90
2623;DHT22;1321;48.690;9.022;2022-09-28T16:39:17;13.00;99.90
2623;DHT22;1321;48.690;9.022;2022-09-28T16:41:48;12.90;99.90
2623;DHT22;1321;48.690;9.022;2022-09-28T16:44:23;12.90;99.90
2623;DHT22;1321;48.690;9.022;2022-09-28T16:46:53;12.80;99.90
2623;DHT22;1321;48.690;9.022;2022-09-28T16:49:24;12.70;99.90
2623;DHT22;1321;48.690;9.022;2022-09-28T16:51:54;12.80;99.90
2623;DHT22;1321;48.690;9.022;2022-09-28T16:54:23;12.90;99.90
2623;DHT22;1321;48.690;9.022;2022-09-28T16:57:10;12.80;99.90
2623;DHT22;1321;48.690;9.022;2022-09-28T16:59:39;12.70;99.90
2623;DHT22;1321;48.690;9.022;2022-09-28T17:02:15;12.70;99.90
2623;DHT22;1321;48.690;9.022;2022-09-28T17:05:05;12.60;99.90
2623;DHT22;1321;48.690;9.022;2022-09-28T17:07:35;12.40;99.90
2623;DHT22;1321;48.690;9.022;2022-09-28T17:10:11;12.50;99.90